KFAT

Fresno Yosemite International Airport

Fresno, California, USA
METAR KFAT 260253Z 00000KT 10SM CLR 14/M03 A3020 RMK AO2 SLP226 T01391028 55003
Observed Flight Rules
Feb-26 @ 02:53 UTC (22 minutes ago) Visual Flight Rules
Wind Visibility Clouds
Calm 10 miles
  • Clear skies
Temperatures Readings
Current 14°C / 57°F
Dewpoint -3°C / 27°F
Humidity 31%
Altimeter 30.2" Hg
Pressure 1022.6 hPa
Elevation 104
METAR KFAT 260253Z 00000KT 10SM CLR 14/M03 A3020 RMK AO2 SLP226 T01391028 55003
Observed Flight Rules
Feb-26 @ 02:53 UTC
(22 minutes ago)
VFR
Wind Visibility
Calm 10 miles
Clouds
  • Clear skies
Temperature Dewpoint
14°C / 57°F -3°C / 27°F
Humidity Altimeter Pressure
31% 30.2" Hg 1022.6 hPa